Time;durP1;ratioP1;P1;durP2;ratioP2;P2;SDS_P1;SDS_P2;PMS_P1;PMS_P2;Temp;Humidity;BMP_temperature;BMP_pressure;BME280_temperature;BME280_humidity;BME280_pressure;Samples;Min_cycle;Max_cycle;Signal;HPM_P1;HPM_P2
2022/03/09 00:02:03;;;;;;;8.57;6.53;;;1.80;99.90;;;;;;4887034;29;20048;-44
2022/03/09 00:04:29;;;;;;;7.57;6.35;;;1.70;99.90;;;;;;4886490;29;20041;-44
2022/03/09 00:06:55;;;;;;;9.68;7.35;;;1.60;99.90;;;;;;4886520;29;20559;-45
2022/03/09 00:09:20;;;;;;;9.40;6.72;;;1.60;99.90;;;;;;4887362;29;20468;-44
2022/03/09 00:11:46;;;;;;;11.20;7.00;;;1.50;99.90;;;;;;4888169;29;20056;-45
2022/03/09 00:14:12;;;;;;;10.02;7.60;;;1.50;99.90;;;;;;4887522;29;20415;-44
2022/03/09 00:16:38;;;;;;;10.15;8.18;;;1.50;99.90;;;;;;4883867;29;20486;-47
2022/03/09 00:19:03;;;;;;;9.48;7.07;;;1.40;99.90;;;;;;4887346;29;20547;-46
2022/03/09 00:21:29;;;;;;;10.30;7.65;;;1.40;99.90;;;;;;4886337;29;20063;-44
2022/03/09 00:23:55;;;;;;;11.38;7.43;;;1.40;99.90;;;;;;4887053;29;20435;-45
2022/03/09 00:26:20;;;;;;;13.30;8.23;;;1.40;99.90;;;;;;4887128;29;20071;-46
2022/03/09 00:28:46;;;;;;;10.85;7.82;;;1.40;99.90;;;;;;4888543;29;20443;-45
2022/03/09 00:31:12;;;;;;;12.35;8.07;;;1.40;99.90;;;;;;4872382;29;20094;-47
2022/03/09 00:33:38;;;;;;;13.50;8.45;;;1.40;99.90;;;;;;4888333;29;20833;-45
2022/03/09 00:36:05;;;;;;;11.98;8.52;;;1.40;99.90;;;;;;4886627;29;20446;-45
2022/03/09 00:38:30;;;;;;;14.27;8.65;;;1.40;99.90;;;;;;4889208;29;20051;-47
2022/03/09 00:40:56;;;;;;;10.68;7.68;;;1.30;99.90;;;;;;4890165;29;20052;-46
2022/03/09 00:43:22;;;;;;;11.70;8.35;;;1.30;99.90;;;;;;4885306;29;20066;-44
2022/03/09 00:45:48;;;;;;;10.23;7.75;;;1.30;99.90;;;;;;4886168;29;20085;-47
2022/03/09 00:48:14;;;;;;;10.85;8.25;;;1.30;99.90;;;;;;4878776;29;20093;-47
2022/03/09 00:50:40;;;;;;;17.13;9.15;;;1.30;99.90;;;;;;4881345;29;20092;-44
2022/03/09 00:53:06;;;;;;;10.20;8.27;;;1.30;99.90;;;;;;4869862;29;20049;-44
2022/03/09 00:55:32;;;;;;;10.65;8.32;;;1.30;99.90;;;;;;4872336;29;20104;-46
2022/03/09 00:57:58;;;;;;;10.50;7.90;;;1.20;99.90;;;;;;4885448;29;20616;-47
2022/03/09 01:00:24;;;;;;;12.27;8.68;;;1.20;99.90;;;;;;4885630;29;20155;-45
2022/03/09 01:02:49;;;;;;;10.45;8.05;;;1.20;99.90;;;;;;4881286;29;20584;-45
2022/03/09 01:05:15;;;;;;;12.93;9.02;;;1.20;99.90;;;;;;4885021;29;20067;-45
2022/03/09 01:07:42;;;;;;;13.07;8.57;;;1.10;99.90;;;;;;4884789;29;20083;-46
2022/03/09 01:10:08;;;;;;;11.15;8.35;;;1.20;99.90;;;;;;4883383;29;20056;-49
2022/03/09 01:12:35;;;;;;;12.35;8.70;;;1.10;99.90;;;;;;4869739;29;20506;-45
2022/03/09 01:15:00;;;;;;;10.98;8.25;;;1.10;99.90;;;;;;4886092;29;20579;-45
2022/03/09 01:17:26;;;;;;;12.20;8.63;;;1.00;99.90;;;;;;4874305;29;20098;-45
2022/03/09 01:19:53;;;;;;;11.50;8.30;;;1.00;99.90;;;;;;4883112;29;20579;-46
2022/03/09 01:22:19;;;;;;;12.15;8.50;;;1.00;99.90;;;;;;4884875;29;20052;-44
2022/03/09 01:24:45;;;;;;;14.82;8.48;;;1.00;99.90;;;;;;4884171;29;20053;-45
2022/03/09 01:27:11;;;;;;;10.20;8.30;;;1.00;99.90;;;;;;4883844;29;20060;-45
2022/03/09 01:29:37;;;;;;;13.88;8.82;;;1.10;99.90;;;;;;4882033;29;20439;-45
2022/03/09 01:32:03;;;;;;;12.13;9.35;;;1.10;99.90;;;;;;4885603;29;20517;-49
2022/03/09 01:34:29;;;;;;;12.75;9.02;;;1.10;99.90;;;;;;4886049;29;20116;-43
2022/03/09 01:36:55;;;;;;;13.45;9.45;;;1.10;99.90;;;;;;4886585;29;20064;-44
2022/03/09 01:39:21;;;;;;;12.55;9.02;;;1.10;99.90;;;;;;4887015;29;20534;-46
2022/03/09 01:41:47;;;;;;;13.68;9.15;;;1.10;99.90;;;;;;4889405;29;20116;-48
2022/03/09 01:44:16;;;;;;;14.75;9.45;;;1.10;99.90;;;;;;4885649;29;20087;-51
2022/03/09 01:46:45;;;;;;;11.85;9.45;;;1.10;99.90;;;;;;4876104;29;20165;-47
2022/03/09 01:49:11;;;;;;;11.20;8.48;;;1.00;99.90;;;;;;4884718;29;20083;-54
2022/03/09 01:51:41;;;;;;;14.13;9.55;;;0.90;99.90;;;;;;4884953;29;20049;-46
2022/03/09 01:54:07;;;;;;;12.73;9.00;;;0.80;99.90;;;;;;4885883;29;20490;-45
2022/03/09 01:56:34;;;;;;;14.85;9.73;;;0.80;99.90;;;;;;4895907;29;20052;-44
2022/03/09 01:59:10;;;;;;;13.52;9.35;;;0.80;99.90;;;;;;4876548;29;20068;-41
2022/03/09 02:01:36;;;;;;;11.80;9.23;;;0.80;99.90;;;;;;4884806;29;20136;-47
2022/03/09 02:04:04;;;;;;;13.73;9.63;;;0.70;99.90;;;;;;4884585;29;20048;-44
2022/03/09 02:06:32;;;;;;;16.45;9.90;;;0.70;99.90;;;;;;4885733;29;20592;-43
2022/03/09 02:11:44;;;;;;;14.38;9.73;;;0.70;99.90;;;;;;4884872;29;20048;-45
2022/03/09 02:14:36;;;;;;;13.70;10.27;;;0.60;99.90;;;;;;4885827;29;20582;-44
2022/03/09 02:17:10;;;;;;;12.63;9.25;;;0.60;99.90;;;;;;4885646;29;20422;-45
2022/03/09 02:19:37;;;;;;;14.40;10.43;;;0.60;99.90;;;;;;4884874;29;20540;-46
2022/03/09 02:22:28;;;;;;;13.27;9.73;;;0.60;99.90;;;;;;4883452;29;20052;-48
2022/03/09 02:24:54;;;;;;;13.48;9.55;;;0.60;99.90;;;;;;4880804;29;20060;-47
2022/03/09 02:27:22;;;;;;;16.65;10.18;;;0.50;99.90;;;;;;4884025;29;20079;-45
2022/03/09 02:29:52;;;;;;;12.48;9.35;;;0.50;99.90;;;;;;4884152;29;20060;-49
2022/03/09 02:32:18;;;;;;;12.93;9.48;;;0.50;99.90;;;;;;4883583;29;20057;-44
2022/03/09 02:34:45;;;;;;;15.50;10.00;;;0.50;99.90;;;;;;4882406;29;20044;-45
2022/03/09 02:37:12;;;;;;;15.75;9.60;;;0.50;99.90;;;;;;4885344;29;20480;-45
2022/03/09 02:39:38;;;;;;;13.63;9.63;;;0.50;99.90;;;;;;4866601;29;20091;-44
2022/03/09 02:42:04;;;;;;;14.43;10.10;;;0.50;99.90;;;;;;4883324;29;20183;-44
2022/03/09 02:44:33;;;;;;;16.02;10.57;;;0.50;99.90;;;;;;4884351;29;20052;-44
2022/03/09 02:46:59;;;;;;;13.07;9.93;;;0.50;99.90;;;;;;4885532;29;20163;-46
2022/03/09 02:49:25;;;;;;;14.60;10.05;;;0.50;99.90;;;;;;4880016;29;20052;-44
2022/03/09 02:51:51;;;;;;;14.18;10.23;;;0.50;99.90;;;;;;4883956;29;20082;-44
2022/03/09 02:54:17;;;;;;;13.50;9.38;;;0.50;99.90;;;;;;4884637;29;20056;-47
2022/03/09 02:56:43;;;;;;;14.98;10.48;;;0.50;99.90;;;;;;4867020;29;20052;-46
2022/03/09 02:59:09;;;;;;;16.50;9.85;;;0.50;99.90;;;;;;4880454;29;20131;-43
2022/03/09 03:01:35;;;;;;;16.13;11.25;;;0.50;99.90;;;;;;4880031;29;20049;-45
2022/03/09 03:04:01;;;;;;;13.15;9.95;;;0.50;99.90;;;;;;4880096;29;20108;-42
2022/03/09 03:06:26;;;;;;;14.77;10.05;;;0.50;99.90;;;;;;4884415;29;20508;-45
2022/03/09 03:08:52;;;;;;;12.35;9.75;;;0.50;99.90;;;;;;4884249;29;20059;-46
2022/03/09 03:11:18;;;;;;;14.65;11.07;;;0.40;99.90;;;;;;4884385;29;20087;-45
2022/03/09 03:13:45;;;;;;;15.32;10.05;;;0.40;99.90;;;;;;4883180;29;20461;-46
2022/03/09 03:16:11;;;;;;;14.77;10.52;;;0.40;99.90;;;;;;4885551;29;20066;-45
2022/03/09 03:18:37;;;;;;;18.27;10.35;;;0.50;99.90;;;;;;4886392;29;20527;-46
2022/03/09 03:21:04;;;;;;;13.70;10.02;;;0.50;99.90;;;;;;4886057;29;20056;-45
2022/03/09 03:23:31;;;;;;;11.77;8.68;;;0.50;99.90;;;;;;4871798;29;21538;-48
2022/03/09 03:25:58;;;;;;;13.25;9.82;;;0.50;99.90;;;;;;4885047;29;20095;-46
2022/03/09 03:28:25;;;;;;;16.00;10.77;;;0.50;99.90;;;;;;4884830;29;20060;-49
2022/03/09 03:30:51;;;;;;;13.60;10.45;;;0.40;99.90;;;;;;4883978;29;20052;-47
2022/03/09 03:33:18;;;;;;;13.95;10.52;;;0.40;99.90;;;;;;4881996;29;20060;-46
2022/03/09 03:35:50;;;;;;;16.60;10.20;;;0.40;99.90;;;;;;4886530;29;20607;-44
2022/03/09 03:38:16;;;;;;;13.60;10.30;;;0.30;99.90;;;;;;4886469;29;20617;-45
2022/03/09 03:40:43;;;;;;;15.05;10.77;;;0.30;99.90;;;;;;4885507;29;20082;-46
2022/03/09 03:43:09;;;;;;;15.55;10.38;;;0.30;99.90;;;;;;4886807;29;20167;-46
2022/03/09 03:45:35;;;;;;;13.35;9.63;;;0.30;99.90;;;;;;4886735;29;20128;-43
2022/03/09 03:48:02;;;;;;;15.38;11.35;;;0.30;99.90;;;;;;4879581;29;20048;-44
2022/03/09 03:50:28;;;;;;;13.05;9.85;;;0.30;99.90;;;;;;4880565;29;20052;-46
2022/03/09 03:52:53;;;;;;;16.23;10.55;;;0.30;99.90;;;;;;4886753;29;20167;-44
2022/03/09 03:55:19;;;;;;;14.93;9.70;;;0.30;99.90;;;;;;4870322;29;20465;-47
2022/03/09 03:57:45;;;;;;;15.85;11.05;;;0.30;99.90;;;;;;4887170;29;20056;-46
2022/03/09 04:00:12;;;;;;;14.68;9.77;;;0.30;99.90;;;;;;4884568;29;20469;-43
2022/03/09 04:02:38;;;;;;;15.50;10.30;;;0.20;99.90;;;;;;4890019;29;20063;-45
2022/03/09 04:05:05;;;;;;;15.50;10.40;;;0.20;99.90;;;;;;4894284;29;20055;-44
2022/03/09 04:07:31;;;;;;;16.10;10.30;;;0.20;99.90;;;;;;4886846;29;20088;-45
2022/03/09 04:09:57;;;;;;;13.80;9.65;;;0.20;99.90;;;;;;4875665;29;20146;-43
2022/03/09 04:12:23;;;;;;;17.27;10.65;;;0.20;99.90;;;;;;4884678;29;20078;-44
2022/03/09 04:14:50;;;;;;;14.98;9.35;;;0.20;99.90;;;;;;4886779;29;20112;-45
2022/03/09 04:17:16;;;;;;;14.23;9.50;;;0.20;99.90;;;;;;4887688;29;20052;-45
2022/03/09 04:19:42;;;;;;;16.42;11.45;;;0.20;99.90;;;;;;4887219;29;20064;-45
2022/03/09 04:22:07;;;;;;;12.90;10.00;;;0.20;99.90;;;;;;4888104;29;20052;-46
2022/03/09 04:24:33;;;;;;;14.43;10.63;;;0.20;99.90;;;;;;4887884;29;20236;-44
2022/03/09 04:26:59;;;;;;;13.38;10.02;;;0.20;99.90;;;;;;4887552;29;20510;-45
2022/03/09 04:29:25;;;;;;;13.45;9.52;;;0.20;99.90;;;;;;4886119;29;20080;-44
2022/03/09 04:31:50;;;;;;;14.32;10.32;;;0.10;99.90;;;;;;4886888;29;20089;-45
2022/03/09 04:34:16;;;;;;;15.75;9.75;;;0.10;99.90;;;;;;4887899;29;20060;-45
2022/03/09 04:36:42;;;;;;;14.02;9.85;;;0.10;99.90;;;;;;4885026;29;20048;-46
2022/03/09 04:39:07;;;;;;;13.43;10.35;;;0.10;99.90;;;;;;4887225;29;20048;-47
2022/03/09 04:41:33;;;;;;;12.90;9.82;;;0.10;99.90;;;;;;4884509;29;20064;-44
2022/03/09 04:44:00;;;;;;;15.27;10.90;;;0.10;99.90;;;;;;4884034;29;20135;-44
2022/03/09 04:46:26;;;;;;;15.25;9.85;;;0.10;99.90;;;;;;4885446;29;20523;-47
2022/03/09 04:48:52;;;;;;;13.20;9.70;;;0.20;99.90;;;;;;4889234;29;20053;-45
2022/03/09 04:51:17;;;;;;;14.02;9.85;;;0.10;99.90;;;;;;4886546;29;20048;-46
2022/03/09 04:53:43;;;;;;;14.60;9.80;;;0.10;99.90;;;;;;4881557;29;20407;-44
2022/03/09 04:56:09;;;;;;;13.32;10.35;;;0.10;99.90;;;;;;4887549;29;20052;-44
2022/03/09 04:58:40;;;;;;;16.35;9.98;;;0.00;99.90;;;;;;4886888;29;20068;-48
2022/03/09 05:01:05;;;;;;;19.10;11.05;;;0.00;99.90;;;;;;4885927;29;20052;-44
2022/03/09 05:03:33;;;;;;;15.27;11.02;;;0.00;99.90;;;;;;4897253;29;20115;-44
2022/03/09 05:05:58;;;;;;;19.08;11.48;;;-0.10;99.90;;;;;;4886798;29;20057;-45
2022/03/09 05:08:24;;;;;;;15.57;11.80;;;-0.10;99.90;;;;;;4886625;29;20089;-45
2022/03/09 05:10:50;;;;;;;16.63;12.18;;;-0.10;99.90;;;;;;4867864;29;20067;-44
2022/03/09 05:13:16;;;;;;;16.30;11.98;;;-0.20;99.90;;;;;;4886911;29;20052;-45
2022/03/09 05:15:42;;;;;;;16.52;11.45;;;-0.20;99.90;;;;;;4882324;29;20064;-43
2022/03/09 05:18:07;;;;;;;14.80;10.35;;;-0.30;99.90;;;;;;4878977;29;20056;-45
2022/03/09 05:20:33;;;;;;;19.27;11.23;;;-0.20;99.90;;;;;;4877042;29;20476;-46
2022/03/09 05:22:59;;;;;;;15.70;11.45;;;-0.20;99.90;;;;;;4884415;29;20060;-44
2022/03/09 05:25:25;;;;;;;14.85;10.70;;;-0.30;99.90;;;;;;4883597;29;20053;-45
2022/03/09 05:27:51;;;;;;;13.48;10.23;;;-0.30;99.90;;;;;;4885035;29;20060;-45
2022/03/09 05:30:16;;;;;;;16.98;10.70;;;-0.30;99.90;;;;;;4884085;29;20045;-47
2022/03/09 05:32:45;;;;;;;13.93;9.80;;;-0.30;99.90;;;;;;4882885;29;20052;-45
2022/03/09 05:35:10;;;;;;;14.52;9.90;;;-0.30;99.90;;;;;;4885014;29;20104;-44
2022/03/09 05:37:41;;;;;;;15.85;10.15;;;-0.30;99.90;;;;;;4885769;29;20048;-45
2022/03/09 05:40:08;;;;;;;16.35;10.13;;;-0.30;99.90;;;;;;4882448;29;20138;-44
2022/03/09 05:42:34;;;;;;;16.13;10.70;;;-0.30;99.90;;;;;;4885630;29;20369;-45
2022/03/09 05:45:00;;;;;;;14.68;9.98;;;-0.30;99.90;;;;;;4869455;29;20967;-46
2022/03/09 05:47:26;;;;;;;15.25;10.50;;;-0.40;99.90;;;;;;4885177;29;20044;-44
2022/03/09 05:49:51;;;;;;;15.10;11.32;;;-0.40;99.90;;;;;;4885836;29;20148;-44
2022/03/09 05:52:17;;;;;;;15.18;10.50;;;-0.30;99.90;;;;;;4886711;29;20510;-45
2022/03/09 05:54:45;;;;;;;18.45;10.23;;;-0.30;99.90;;;;;;4890101;29;20045;-48
2022/03/09 05:57:12;;;;;;;13.98;9.55;;;-0.30;99.90;;;;;;4885377;29;20057;-48
2022/03/09 05:59:38;;;;;;;16.88;10.75;;;-0.30;99.90;;;;;;4885238;29;20525;-46
2022/03/09 06:02:04;;;;;;;13.10;9.63;;;-0.30;99.90;;;;;;4885506;29;20168;-44
2022/03/09 06:04:29;;;;;;;16.40;10.23;;;-0.30;99.90;;;;;;4879295;29;20048;-47
2022/03/09 06:06:55;;;;;;;14.63;10.15;;;-0.30;99.90;;;;;;4884791;29;20056;-45
2022/03/09 06:09:21;;;;;;;14.82;10.68;;;-0.40;99.90;;;;;;4884808;29;20052;-43
2022/03/09 06:11:47;;;;;;;15.07;11.75;;;-0.40;99.90;;;;;;4868028;29;20056;-43
2022/03/09 06:14:12;;;;;;;14.63;10.77;;;-0.40;99.90;;;;;;4884478;29;20147;-45
2022/03/09 06:16:38;;;;;;;16.30;11.45;;;-0.40;99.90;;;;;;4884458;29;20849;-44
2022/03/09 06:19:04;;;;;;;15.65;10.30;;;-0.40;99.90;;;;;;4884406;29;20416;-42
2022/03/09 06:21:29;;;;;;;17.70;10.63;;;-0.40;99.90;;;;;;4882847;29;20567;-46
2022/03/09 06:23:55;;;;;;;17.10;10.32;;;-0.40;99.90;;;;;;4883704;29;20056;-44
2022/03/09 06:26:21;;;;;;;17.20;10.10;;;-0.30;99.90;;;;;;4882229;29;20056;-43
2022/03/09 06:28:47;;;;;;;16.48;11.20;;;-0.10;99.90;;;;;;4866025;29;20125;-45
2022/03/09 06:31:12;;;;;;;20.70;12.88;;;0.30;99.90;;;;;;4863578;29;20056;-44
2022/03/09 06:33:38;;;;;;;19.20;13.73;;;0.90;99.90;;;;;;4883961;29;20629;-45
2022/03/09 06:36:06;;;;;;;17.23;12.13;;;1.60;99.90;;;;;;4885330;29;20411;-44
2022/03/09 06:38:37;;;;;;;18.02;13.35;;;2.40;99.90;;;;;;4882073;29;20069;-44
2022/03/09 06:41:03;;;;;;;18.73;14.13;;;3.10;99.90;;;;;;4883811;29;20546;-44
2022/03/09 06:43:29;;;;;;;21.15;14.15;;;3.80;99.90;;;;;;4882478;29;20505;-43
2022/03/09 06:45:54;;;;;;;21.83;15.60;;;4.30;99.90;;;;;;4885106;29;20052;-45
2022/03/09 06:48:20;;;;;;;18.70;13.68;;;4.60;99.90;;;;;;4879534;29;20151;-46
2022/03/09 06:50:46;;;;;;;16.00;12.20;;;4.50;99.90;;;;;;4881027;29;20373;-50
2022/03/09 06:53:12;;;;;;;12.77;9.98;;;4.30;99.90;;;;;;4885462;29;20564;-45
2022/03/09 06:55:37;;;;;;;14.43;11.48;;;4.20;99.90;;;;;;4882767;29;20064;-49
2022/03/09 06:58:04;;;;;;;16.35;11.30;;;4.10;99.90;;;;;;4885463;29;20052;-46
2022/03/09 07:00:30;;;;;;;17.00;10.13;;;4.20;99.90;;;;;;4886148;29;20056;-47
2022/03/09 07:02:56;;;;;;;17.08;11.20;;;4.10;99.90;;;;;;4892821;29;20052;-48
2022/03/09 07:05:23;;;;;;;13.90;10.30;;;4.10;99.90;;;;;;4889308;29;20080;-46
2022/03/09 07:07:49;;;;;;;14.23;10.35;;;4.00;99.90;;;;;;4883854;29;20087;-43
2022/03/09 07:10:15;;;;;;;13.77;10.25;;;4.00;99.90;;;;;;4867698;29;20488;-47
2022/03/09 07:12:43;;;;;;;14.73;10.70;;;4.00;99.90;;;;;;4886359;29;20147;-47
2022/03/09 07:15:09;;;;;;;11.93;10.05;;;4.00;99.90;;;;;;4888543;29;20048;-45
2022/03/09 07:17:35;;;;;;;13.82;10.02;;;4.00;99.90;;;;;;4869477;29;20535;-43
2022/03/09 07:20:00;;;;;;;13.43;10.52;;;4.10;99.90;;;;;;4883132;29;20401;-48
2022/03/09 07:22:26;;;;;;;12.38;9.75;;;4.10;99.90;;;;;;4868475;29;20466;-48
2022/03/09 07:24:52;;;;;;;28.92;24.77;;;4.10;99.90;;;;;;4886965;29;20376;-45
2022/03/09 07:27:17;;;;;;;16.50;11.40;;;4.20;99.90;;;;;;4888552;29;20460;-47
2022/03/09 07:29:44;;;;;;;12.68;9.48;;;4.20;99.90;;;;;;4887079;29;20176;-46
2022/03/09 07:32:14;;;;;;;13.73;10.10;;;4.20;99.90;;;;;;4888141;29;20082;-44
2022/03/09 07:34:40;;;;;;;13.65;10.25;;;4.20;99.90;;;;;;4885334;29;20056;-45
2022/03/09 07:37:06;;;;;;;16.27;10.68;;;4.20;99.90;;;;;;4880642;29;20455;-44
2022/03/09 07:39:32;;;;;;;14.65;11.20;;;4.30;99.90;;;;;;4886964;29;20108;-46
2022/03/09 07:41:58;;;;;;;18.33;12.27;;;4.30;99.90;;;;;;4887307;29;20131;-43
2022/03/09 07:44:25;;;;;;;17.17;11.63;;;4.50;99.90;;;;;;4887020;29;20047;-47
2022/03/09 07:46:51;;;;;;;19.48;12.85;;;4.50;99.90;;;;;;4870367;29;20052;-47
2022/03/09 07:49:18;;;;;;;12.88;10.10;;;4.60;99.90;;;;;;4888093;29;20753;-46
2022/03/09 07:51:44;;;;;;;15.10;10.30;;;4.70;99.90;;;;;;4887177;29;20517;-45
2022/03/09 07:54:10;;;;;;;12.93;9.85;;;4.70;99.90;;;;;;4866172;29;20527;-44
2022/03/09 07:56:36;;;;;;;14.45;10.02;;;4.80;99.90;;;;;;4884943;29;20155;-47
2022/03/09 07:59:03;;;;;;;11.82;9.40;;;4.80;99.90;;;;;;4882213;29;20044;-46
2022/03/09 08:01:29;;;;;;;12.48;9.70;;;4.90;99.90;;;;;;4886070;29;20163;-45
2022/03/09 08:03:55;;;;;;;11.38;9.48;;;5.00;99.90;;;;;;4887081;29;20509;-46
2022/03/09 08:06:21;;;;;;;12.60;10.23;;;5.00;99.90;;;;;;4884394;29;20084;-46
2022/03/09 08:08:47;;;;;;;14.63;10.05;;;5.10;99.90;;;;;;4870496;29;20059;-45
2022/03/09 08:11:13;;;;;;;14.55;9.15;;;5.30;99.90;;;;;;4872823;29;20052;-48
2022/03/09 08:13:39;;;;;;;12.57;9.55;;;5.40;99.90;;;;;;4885169;29;20045;-47
2022/03/09 08:16:06;;;;;;;14.57;9.98;;;5.50;99.90;;;;;;4886831;29;20080;-45
2022/03/09 08:18:31;;;;;;;13.73;10.18;;;5.70;99.90;;;;;;4884880;29;20053;-47
2022/03/09 08:20:57;;;;;;;12.50;10.40;;;5.70;99.90;;;;;;4884693;29;20048;-46
2022/03/09 08:23:23;;;;;;;12.20;9.52;;;5.80;99.90;;;;;;4891047;29;20083;-46
2022/03/09 08:25:50;;;;;;;11.55;9.27;;;6.00;99.90;;;;;;4882019;29;20613;-48
2022/03/09 08:28:16;;;;;;;12.07;9.80;;;6.10;99.90;;;;;;4885776;29;20079;-50
2022/03/09 08:30:42;;;;;;;12.88;9.40;;;6.20;99.90;;;;;;4872568;29;20048;-46
2022/03/09 08:33:08;;;;;;;12.23;9.30;;;6.40;99.90;;;;;;4873491;29;20147;-47
2022/03/09 08:35:34;;;;;;;13.90;9.52;;;6.50;99.90;;;;;;4883809;29;20456;-46
2022/03/09 08:38:00;;;;;;;12.63;9.02;;;6.50;99.90;;;;;;4887566;29;20049;-46
2022/03/09 08:40:25;;;;;;;13.15;9.82;;;6.60;99.90;;;;;;4869480;29;20099;-46
2022/03/09 08:42:51;;;;;;;13.38;9.93;;;6.60;99.90;;;;;;4870966;29;20068;-46
2022/03/09 08:45:17;;;;;;;11.98;9.10;;;6.70;99.90;;;;;;4886702;29;20049;-46
2022/03/09 08:47:43;;;;;;;15.25;10.05;;;6.80;99.90;;;;;;4869279;29;20041;-48
2022/03/09 08:50:09;;;;;;;13.43;9.75;;;6.90;99.90;;;;;;4885794;29;20052;-47
2022/03/09 08:52:35;;;;;;;11.73;9.13;;;6.90;99.90;;;;;;4889860;29;20048;-48
2022/03/09 08:55:05;;;;;;;13.48;9.25;;;7.00;99.90;;;;;;4885253;29;20072;-46
2022/03/09 08:57:31;;;;;;;13.50;9.02;;;7.10;99.90;;;;;;4887245;29;20060;-46
2022/03/09 09:00:04;;;;;;;13.77;9.52;;;7.10;99.90;;;;;;4884586;29;20053;-47
2022/03/09 09:02:30;;;;;;;;;;;7.10;99.90;;;;;;4884439;29;20056;-46
2022/03/09 09:04:56;;;;;;;12.65;9.90;;;7.20;99.90;;;;;;4885559;29;20354;-47
2022/03/09 09:07:23;;;;;;;12.25;9.32;;;7.20;99.90;;;;;;4885653;29;20494;-45
2022/03/09 09:09:49;;;;;;;15.38;9.23;;;7.20;99.90;;;;;;4885137;29;20057;-46
2022/03/09 09:12:15;;;;;;;14.82;9.70;;;7.30;99.90;;;;;;4886078;29;20048;-50
2022/03/09 09:14:41;;;;;;;15.70;10.23;;;7.20;99.90;;;;;;4885395;29;20063;-47
2022/03/09 09:17:07;;;;;;;14.68;10.43;;;7.30;99.90;;;;;;4885546;29;20044;-48
2022/03/09 09:19:34;;;;;;;11.65;9.05;;;7.40;99.90;;;;;;4889705;29;20188;-46
2022/03/09 09:22:01;;;;;;;15.27;10.70;;;7.50;99.90;;;;;;4886789;29;20910;-49
2022/03/09 09:24:27;;;;;;;13.65;10.38;;;7.40;99.90;;;;;;4894588;29;20543;-49
2022/03/09 09:26:53;;;;;;;12.88;9.43;;;7.50;99.90;;;;;;4878935;29;20135;-48
2022/03/09 09:29:19;;;;;;;15.73;9.10;;;7.60;99.90;;;;;;4883744;29;20056;-53
2022/03/09 09:31:47;;;;;;;12.73;9.80;;;7.80;99.90;;;;;;4885776;29;20491;-49
2022/03/09 09:34:13;;;;;;;16.50;11.10;;;8.00;99.90;;;;;;4886770;29;20049;-48
2022/03/09 09:36:42;;;;;;;13.90;9.90;;;8.00;99.90;;;;;;4882183;29;20290;-47
2022/03/09 09:39:08;;;;;;;12.57;10.40;;;8.10;99.60;;;;;;4879643;29;20056;-49
2022/03/09 09:41:36;;;;;;;12.15;9.30;;;8.10;99.90;;;;;;4885134;29;20464;-48
2022/03/09 09:44:02;;;;;;;13.02;10.23;;;8.20;99.90;;;;;;4882268;29;20059;-46
2022/03/09 09:46:28;;;;;;;13.30;9.45;;;8.20;99.90;;;;;;4885529;29;20049;-47
2022/03/09 09:48:54;;;;;;;14.40;10.13;;;8.10;99.90;;;;;;4884724;29;20058;-50
2022/03/09 09:51:23;;;;;;;13.98;10.40;;;8.30;99.90;;;;;;4885842;29;20057;-48
2022/03/09 09:53:49;;;;;;;15.00;10.23;;;8.30;99.90;;;;;;4886240;29;20448;-47
2022/03/09 09:56:15;;;;;;;15.43;11.40;;;8.30;99.90;;;;;;4881174;29;20056;-47
2022/03/09 09:58:43;;;;;;;15.88;11.80;;;8.30;99.90;;;;;;4872583;29;20635;-50
2022/03/09 10:01:10;;;;;;;14.45;10.98;;;8.30;99.90;;;;;;4878610;29;20052;-48
2022/03/09 10:03:36;;;;;;;14.27;11.10;;;8.40;99.90;;;;;;4879950;29;20373;-47
2022/03/09 10:06:01;;;;;;;15.45;10.93;;;8.60;99.90;;;;;;4886229;29;20056;-47
2022/03/09 10:08:27;;;;;;;14.95;10.50;;;8.70;98.50;;;;;;4885709;29;20095;-45
2022/03/09 10:10:56;;;;;;;14.77;10.68;;;8.80;98.70;;;;;;4885611;29;20461;-46
2022/03/09 10:13:24;;;;;;;13.70;10.85;;;8.80;97.50;;;;;;4885448;29;20052;-48
2022/03/09 10:16:12;;;;;;;10.57;9.35;;;8.80;97.40;;;;;;4884134;29;20056;-48
2022/03/09 10:18:39;;;;;;;12.93;10.85;;;9.00;98.20;;;;;;4884662;29;20084;-45
2022/03/09 10:21:14;;;;;;;12.10;9.98;;;9.00;97.20;;;;;;4882187;29;20135;-47
2022/03/09 10:24:01;;;;;;;11.32;9.63;;;9.10;96.80;;;;;;4883954;29;20055;-48
2022/03/09 10:26:35;;;;;;;11.48;9.27;;;9.20;98.70;;;;;;4884332;29;20052;-51
2022/03/09 10:29:12;;;;;;;12.32;9.63;;;9.40;99.30;;;;;;4882243;29;20578;-49
2022/03/09 10:31:47;;;;;;;11.02;9.73;;;9.40;97.20;;;;;;4885529;29;20444;-51
2022/03/09 10:34:15;;;;;;;12.55;9.80;;;9.40;96.40;;;;;;4886521;29;20044;-48
2022/03/09 10:37:06;;;;;;;11.82;9.60;;;9.60;97.40;;;;;;4875196;29;20141;-50
2022/03/09 10:39:37;;;;;;;12.82;9.88;;;9.60;98.60;;;;;;4888185;29;20048;-48
2022/03/09 10:42:21;;;;;;;13.40;10.15;;;9.70;97.30;;;;;;4887732;29;20056;-45
2022/03/09 10:44:49;;;;;;;10.90;9.00;;;9.70;98.00;;;;;;4884371;29;20163;-52
2022/03/09 10:47:30;;;;;;;12.45;10.43;;;9.80;97.10;;;;;;4885912;29;20393;-53
2022/03/09 10:50:11;;;;;;;14.50;11.25;;;9.80;96.50;;;;;;4874975;29;20095;-50
2022/03/09 10:53:06;;;;;;;12.38;10.23;;;9.80;96.80;;;;;;4899152;29;20084;-47
2022/03/09 10:55:35;;;;;;;13.93;10.40;;;9.80;97.20;;;;;;4889768;29;20061;-47
2022/03/09 10:58:09;;;;;;;16.27;10.82;;;9.90;97.10;;;;;;4886092;29;20499;-46
2022/03/09 11:00:55;;;;;;;15.63;11.32;;;10.00;96.80;;;;;;4884512;29;20052;-47
2022/03/09 11:03:22;;;;;;;13.00;9.82;;;10.10;97.00;;;;;;4884758;29;20044;-50
2022/03/09 11:05:56;;;;;;;14.95;10.88;;;10.20;96.80;;;;;;4882844;29;20049;-47
2022/03/09 11:08:24;;;;;;;17.10;11.57;;;10.20;95.90;;;;;;4883233;29;20471;-48
2022/03/09 11:10:50;;;;;;;13.50;10.45;;;10.40;96.40;;;;;;4882516;29;20063;-49
2022/03/09 11:13:17;;;;;;;15.63;11.18;;;10.50;96.70;;;;;;4883660;29;20053;-48
2022/03/09 11:15:53;;;;;;;12.73;10.65;;;10.50;97.70;;;;;;4881900;29;20060;-46
2022/03/09 11:18:20;;;;;;;13.90;10.65;;;10.50;95.90;;;;;;4879815;29;20127;-48
2022/03/09 11:20:52;;;;;;;15.05;11.18;;;10.60;97.30;;;;;;4884332;29;20057;-46
2022/03/09 11:23:19;;;;;;;13.60;10.95;;;10.60;95.80;;;;;;4867819;29;20687;-49
2022/03/09 11:26:18;;;;;;;13.93;11.45;;;10.50;96.20;;;;;;4881158;29;20048;-49
2022/03/09 11:28:45;;;;;;;13.43;10.68;;;10.60;98.00;;;;;;4862863;29;20108;-47
2022/03/09 11:31:20;;;;;;;18.27;12.45;;;10.70;96.70;;;;;;4881021;29;20056;-49
2022/03/09 11:33:53;;;;;;;16.70;11.93;;;10.80;96.90;;;;;;4880792;29;20115;-51
2022/03/09 11:36:29;;;;;;;17.25;14.52;;;10.80;96.20;;;;;;4886289;29;20049;-50
2022/03/09 11:39:13;;;;;;;27.15;17.50;;;10.80;95.70;;;;;;4884244;29;20559;-51
2022/03/09 11:41:40;;;;;;;15.32;12.00;;;10.80;94.80;;;;;;4883278;29;20074;-51
2022/03/09 11:44:21;;;;;;;17.35;12.75;;;10.80;95.80;;;;;;4880494;29;20044;-51
2022/03/09 11:47:01;;;;;;;19.27;13.68;;;10.80;95.90;;;;;;4883935;29;20057;-52
2022/03/09 11:49:49;;;;;;;16.30;12.70;;;10.90;96.40;;;;;;4876757;29;20072;-50
2022/03/09 11:52:31;;;;;;;22.92;16.40;;;11.00;96.40;;;;;;4880078;29;20059;-53
2022/03/09 11:55:01;;;;;;;15.20;11.95;;;11.00;95.60;;;;;;4882587;29;20061;-48
2022/03/09 11:57:48;;;;;;;23.05;15.48;;;11.10;94.90;;;;;;4886821;29;20096;-50
2022/03/09 12:00:16;;;;;;;22.20;15.02;;;11.20;94.80;;;;;;4883656;29;20056;-52
2022/03/09 12:02:43;;;;;;;16.63;13.68;;;11.20;94.00;;;;;;4883543;29;20049;-50
2022/03/09 12:05:31;;;;;;;19.67;13.05;;;11.20;95.40;;;;;;4882754;29;20056;-51
2022/03/09 12:08:11;;;;;;;13.93;12.25;;;11.20;94.50;;;;;;4881307;29;20084;-50
2022/03/09 12:10:55;;;;;;;16.88;12.05;;;11.30;93.10;;;;;;4887035;29;20875;-49
2022/03/09 12:13:45;;;;;;;15.73;12.70;;;11.40;93.70;;;;;;4885187;29;20057;-52
2022/03/09 12:16:14;;;;;;;13.35;11.35;;;11.50;92.80;;;;;;4888733;29;20053;-49
2022/03/09 12:18:47;;;;;;;17.42;12.57;;;11.50;94.00;;;;;;4873777;29;20802;-54
2022/03/09 12:21:34;;;;;;;;;;;11.60;93.30;;;;;;4888906;29;20108;-53
2022/03/09 12:24:03;;;;;;;14.63;11.75;;;11.60;93.30;;;;;;4833026;29;19935;-50
2022/03/09 12:26:42;;;;;;;14.82;11.45;;;11.70;93.50;;;;;;4832144;29;20065;-54
2022/03/09 12:29:25;;;;;;;13.88;11.88;;;11.70;94.00;;;;;;4845078;29;20107;-51
2022/03/09 12:32:09;;;;;;;14.25;12.00;;;11.70;94.50;;;;;;4846300;29;20064;-46
2022/03/09 12:34:39;;;;;;;15.60;12.60;;;11.80;91.90;;;;;;4846032;29;20882;-48
2022/03/09 12:37:07;;;;;;;17.73;14.45;;;11.70;92.50;;;;;;4831876;29;20066;-49
2022/03/09 12:39:34;;;;;;;16.13;12.35;;;11.70;93.30;;;;;;4844775;29;20049;-49
2022/03/09 12:42:01;;;;;;;15.65;12.50;;;11.70;93.20;;;;;;4847696;29;20160;-50
2022/03/09 12:44:32;;;;;;;15.43;11.88;;;11.80;92.40;;;;;;4848551;29;20122;-48
2022/03/09 12:47:03;;;;;;;16.33;12.95;;;11.80;93.40;;;;;;4847141;29;20053;-48
2022/03/09 12:49:40;;;;;;;14.95;12.45;;;11.90;91.60;;;;;;4846877;29;20696;-50